الصفحة الرئيسية
METAR-TAF:

METAR-TAF

مطار :

Guymon, أوكلاهوما, الولايات المتحدة

دائرة عرض: 36-40-54N, خط طول: 101-30-19W, ارتفاع: 952 متر

مراقبة الطقس الحالي

تاريخ ووقت الإصدار 44 دقيقة قبل الساعة 01:53UTC
ريح 6 عقدة من الشرق
درجة الحرارة 29°درجة مئوية
الرطوبة 35%
ضغط 1012 hPa
الرؤية: 16.1 كم
سماء صافية

METAR: KGUY 260153Z AUTO 08006KT 10SM CLR 29/12 A2988 RMK AO2 SLP071 T02940122

زمن: 21:37 (02:37 UTC)

توقعات

تاريخ ووقت الإصدار 3ساعات و 4 دقيقة قبل الساعة 23:33UTC
التوقعات صالحة من26 الساعة 00 UTC إلى 26 الساعة 24 UTC
ريح 6 عقدة من الشرق/الجنوب الشرقي
الرؤية: 10 كم
سماء صافية
من 26 الساعة 1700 UTC
ريح 12 عقدة من الجنوب/الجنوب الشرقي
الرؤية: 10 كم
سماء صافية

TAF: KGUY 252333Z 2600/2624 11006KT P6SM SKC FM261700 16012KT P6SM SKC

أرصاد الطقس والتوقعات من أكثر من 4000 مطار (تقارير الطقس للمطار METAR والتنبؤ بالطقس بالمطارTAF).

المحطات المتاحة هي النقط الصفراء والحمراء على الخريطة.

حرك المؤشر فوق النقطة لمعرفة اسم المحطة.

ثم انقر لمعرفة أرصاد وتوقعات الطقس.

لتغيير الخارطة: اضغط على الأزرار الخضراء مع رمز الصليب الأسود للتكبير. على الزر الأخضر مع شرطة للتصغير، أو على الأسهم الخضراء للخرائط المجاورة.


METAR-TAF: